sensor_id;sensor_type;location;lat;lon;timestamp;temperature;humidity
55721;DHT22;41626;53.098;6.168;2023-05-07T00:01:56;13.40;99.90
55721;DHT22;41626;53.098;6.168;2023-05-07T00:04:22;13.40;99.90
55721;DHT22;41626;53.098;6.168;2023-05-07T00:06:48;13.40;99.90
55721;DHT22;41626;53.098;6.168;2023-05-07T00:09:13;13.30;99.90
55721;DHT22;41626;53.098;6.168;2023-05-07T00:11:39;13.40;99.90
55721;DHT22;41626;53.098;6.168;2023-05-07T00:14:05;13.40;99.90
55721;DHT22;41626;53.098;6.168;2023-05-07T00:16:31;13.50;99.90
55721;DHT22;41626;53.098;6.168;2023-05-07T00:18:57;13.40;99.90
55721;DHT22;41626;53.098;6.168;2023-05-07T00:21:23;13.50;99.90
55721;DHT22;41626;53.098;6.168;2023-05-07T00:23:52;13.50;99.90
55721;DHT22;41626;53.098;6.168;2023-05-07T00:26:18;13.40;99.90
55721;DHT22;41626;53.098;6.168;2023-05-07T00:28:44;13.30;99.90
55721;DHT22;41626;53.098;6.168;2023-05-07T00:31:09;13.20;99.90
55721;DHT22;41626;53.098;6.168;2023-05-07T00:33:35;13.30;99.90
55721;DHT22;41626;53.098;6.168;2023-05-07T00:36:01;13.40;99.90
55721;DHT22;41626;53.098;6.168;2023-05-07T00:38:27;13.20;99.90
55721;DHT22;41626;53.098;6.168;2023-05-07T00:40:52;13.10;99.90
55721;DHT22;41626;53.098;6.168;2023-05-07T00:43:18;13.20;99.90
55721;DHT22;41626;53.098;6.168;2023-05-07T00:45:44;13.30;99.90
55721;DHT22;41626;53.098;6.168;2023-05-07T00:48:10;13.30;99.90
55721;DHT22;41626;53.098;6.168;2023-05-07T00:50:35;13.30;99.90
55721;DHT22;41626;53.098;6.168;2023-05-07T00:53:01;13.30;99.90
55721;DHT22;41626;53.098;6.168;2023-05-07T00:55:28;13.30;99.90
55721;DHT22;41626;53.098;6.168;2023-05-07T00:57:54;13.30;99.90
55721;DHT22;41626;53.098;6.168;2023-05-07T01:00:19;13.20;99.90
55721;DHT22;41626;53.098;6.168;2023-05-07T01:02:45;13.10;99.90
55721;DHT22;41626;53.098;6.168;2023-05-07T01:05:15;13.20;99.90
55721;DHT22;41626;53.098;6.168;2023-05-07T01:07:42;13.10;99.90
55721;DHT22;41626;53.098;6.168;2023-05-07T01:12:41;13.20;99.90
55721;DHT22;41626;53.098;6.168;2023-05-07T01:15:09;13.20;99.90
55721;DHT22;41626;53.098;6.168;2023-05-07T01:17:39;13.20;99.90
55721;DHT22;41626;53.098;6.168;2023-05-07T01:20:06;13.20;99.90
55721;DHT22;41626;53.098;6.168;2023-05-07T01:22:39;13.20;99.90
55721;DHT22;41626;53.098;6.168;2023-05-07T01:25:06;13.20;99.90
55721;DHT22;41626;53.098;6.168;2023-05-07T01:27:32;13.20;99.90
55721;DHT22;41626;53.098;6.168;2023-05-07T01:30:03;13.00;99.90
55721;DHT22;41626;53.098;6.168;2023-05-07T01:32:35;13.10;99.90
55721;DHT22;41626;53.098;6.168;2023-05-07T01:35:05;13.10;99.90
55721;DHT22;41626;53.098;6.168;2023-05-07T01:37:31;12.90;99.90
55721;DHT22;41626;53.098;6.168;2023-05-07T01:39:57;12.90;99.90
55721;DHT22;41626;53.098;6.168;2023-05-07T01:42:23;12.90;99.90
55721;DHT22;41626;53.098;6.168;2023-05-07T01:44:49;12.90;99.90
55721;DHT22;41626;53.098;6.168;2023-05-07T01:47:15;13.00;99.90
55721;DHT22;41626;53.098;6.168;2023-05-07T01:49:42;12.90;99.90
55721;DHT22;41626;53.098;6.168;2023-05-07T01:52:09;12.80;99.90
55721;DHT22;41626;53.098;6.168;2023-05-07T01:54:35;12.70;99.90
55721;DHT22;41626;53.098;6.168;2023-05-07T01:57:01;12.70;99.90
55721;DHT22;41626;53.098;6.168;2023-05-07T01:59:26;12.90;99.90
55721;DHT22;41626;53.098;6.168;2023-05-07T02:01:52;12.90;99.90
55721;DHT22;41626;53.098;6.168;2023-05-07T02:04:17;12.80;99.90
55721;DHT22;41626;53.098;6.168;2023-05-07T02:06:43;12.60;99.90
55721;DHT22;41626;53.098;6.168;2023-05-07T02:09:09;12.60;99.90
55721;DHT22;41626;53.098;6.168;2023-05-07T02:11:34;12.60;99.90
55721;DHT22;41626;53.098;6.168;2023-05-07T02:14:02;12.80;99.90
55721;DHT22;41626;53.098;6.168;2023-05-07T02:16:27;12.50;99.90
55721;DHT22;41626;53.098;6.168;2023-05-07T02:18:53;12.60;99.90
55721;DHT22;41626;53.098;6.168;2023-05-07T02:21:19;12.60;99.90
55721;DHT22;41626;53.098;6.168;2023-05-07T02:23:44;12.50;99.90
55721;DHT22;41626;53.098;6.168;2023-05-07T02:26:11;12.50;99.90
55721;DHT22;41626;53.098;6.168;2023-05-07T02:28:36;12.50;99.90
55721;DHT22;41626;53.098;6.168;2023-05-07T02:31:03;12.50;99.90
55721;DHT22;41626;53.098;6.168;2023-05-07T02:33:29;12.50;99.90
55721;DHT22;41626;53.098;6.168;2023-05-07T02:35:55;12.50;99.90
55721;DHT22;41626;53.098;6.168;2023-05-07T02:38:21;12.60;99.90
55721;DHT22;41626;53.098;6.168;2023-05-07T02:40:47;12.40;99.90
55721;DHT22;41626;53.098;6.168;2023-05-07T02:43:12;12.40;99.90
55721;DHT22;41626;53.098;6.168;2023-05-07T02:45:38;12.10;99.90
55721;DHT22;41626;53.098;6.168;2023-05-07T02:48:04;12.30;99.90
55721;DHT22;41626;53.098;6.168;2023-05-07T02:50:31;12.10;99.90
55721;DHT22;41626;53.098;6.168;2023-05-07T02:52:58;12.20;99.90
55721;DHT22;41626;53.098;6.168;2023-05-07T02:55:23;12.20;99.90
55721;DHT22;41626;53.098;6.168;2023-05-07T02:57:49;12.10;99.90
55721;DHT22;41626;53.098;6.168;2023-05-07T03:00:19;12.20;99.90
55721;DHT22;41626;53.098;6.168;2023-05-07T03:02:45;12.30;99.90
55721;DHT22;41626;53.098;6.168;2023-05-07T03:05:11;12.10;99.90
55721;DHT22;41626;53.098;6.168;2023-05-07T03:07:38;12.20;99.90
55721;DHT22;41626;53.098;6.168;2023-05-07T03:10:04;12.20;99.90
55721;DHT22;41626;53.098;6.168;2023-05-07T03:12:31;12.20;99.90
55721;DHT22;41626;53.098;6.168;2023-05-07T03:14:56;12.20;99.90
55721;DHT22;41626;53.098;6.168;2023-05-07T03:17:22;12.20;99.90
55721;DHT22;41626;53.098;6.168;2023-05-07T03:19:48;12.10;99.90
55721;DHT22;41626;53.098;6.168;2023-05-07T03:22:14;12.00;99.90
55721;DHT22;41626;53.098;6.168;2023-05-07T03:24:40;12.20;99.90
55721;DHT22;41626;53.098;6.168;2023-05-07T03:27:05;11.90;99.90
55721;DHT22;41626;53.098;6.168;2023-05-07T03:29:31;12.00;99.90
55721;DHT22;41626;53.098;6.168;2023-05-07T03:31:57;12.00;99.90
55721;DHT22;41626;53.098;6.168;2023-05-07T03:34:23;11.80;99.90
55721;DHT22;41626;53.098;6.168;2023-05-07T03:36:49;11.80;99.90
55721;DHT22;41626;53.098;6.168;2023-05-07T03:39:14;11.80;99.90
55721;DHT22;41626;53.098;6.168;2023-05-07T03:41:40;11.90;99.90
55721;DHT22;41626;53.098;6.168;2023-05-07T03:44:06;11.90;99.90
55721;DHT22;41626;53.098;6.168;2023-05-07T03:46:33;11.80;99.90
55721;DHT22;41626;53.098;6.168;2023-05-07T03:48:58;11.70;99.90
55721;DHT22;41626;53.098;6.168;2023-05-07T03:51:24;11.90;99.90
55721;DHT22;41626;53.098;6.168;2023-05-07T03:53:51;11.80;99.90
55721;DHT22;41626;53.098;6.168;2023-05-07T03:56:18;11.80;99.90
55721;DHT22;41626;53.098;6.168;2023-05-07T03:58:44;11.80;99.90
55721;DHT22;41626;53.098;6.168;2023-05-07T04:01:10;11.60;99.90
55721;DHT22;41626;53.098;6.168;2023-05-07T04:03:36;11.50;99.90
55721;DHT22;41626;53.098;6.168;2023-05-07T04:06:02;11.60;99.90
55721;DHT22;41626;53.098;6.168;2023-05-07T04:08:28;11.70;99.90
55721;DHT22;41626;53.098;6.168;2023-05-07T04:10:57;11.70;99.90
55721;DHT22;41626;53.098;6.168;2023-05-07T04:13:24;11.80;99.90
55721;DHT22;41626;53.098;6.168;2023-05-07T04:15:50;11.80;99.90
55721;DHT22;41626;53.098;6.168;2023-05-07T04:18:16;11.70;99.90
55721;DHT22;41626;53.098;6.168;2023-05-07T04:20:42;11.60;99.90
55721;DHT22;41626;53.098;6.168;2023-05-07T04:23:07;11.60;99.90
55721;DHT22;41626;53.098;6.168;2023-05-07T04:25:33;11.70;99.90
55721;DHT22;41626;53.098;6.168;2023-05-07T04:27:59;11.50;99.90
55721;DHT22;41626;53.098;6.168;2023-05-07T04:30:25;11.60;99.90
55721;DHT22;41626;53.098;6.168;2023-05-07T04:32:52;11.40;99.90
55721;DHT22;41626;53.098;6.168;2023-05-07T04:35:19;11.50;99.90
55721;DHT22;41626;53.098;6.168;2023-05-07T04:37:44;11.70;99.90
55721;DHT22;41626;53.098;6.168;2023-05-07T04:40:10;11.50;99.90
55721;DHT22;41626;53.098;6.168;2023-05-07T04:42:36;11.60;99.90
55721;DHT22;41626;53.098;6.168;2023-05-07T04:45:02;11.50;99.90
55721;DHT22;41626;53.098;6.168;2023-05-07T04:47:28;11.60;99.90
55721;DHT22;41626;53.098;6.168;2023-05-07T04:49:54;11.60;99.90
55721;DHT22;41626;53.098;6.168;2023-05-07T04:52:19;11.50;99.90
55721;DHT22;41626;53.098;6.168;2023-05-07T04:54:46;11.60;99.90
55721;DHT22;41626;53.098;6.168;2023-05-07T04:57:12;11.60;99.90
55721;DHT22;41626;53.098;6.168;2023-05-07T04:59:40;11.60;99.90
55721;DHT22;41626;53.098;6.168;2023-05-07T05:02:06;11.70;99.90
55721;DHT22;41626;53.098;6.168;2023-05-07T05:04:32;11.40;99.90
55721;DHT22;41626;53.098;6.168;2023-05-07T05:06:58;11.50;99.90
55721;DHT22;41626;53.098;6.168;2023-05-07T05:09:23;11.80;99.90
55721;DHT22;41626;53.098;6.168;2023-05-07T05:11:49;11.70;99.90
55721;DHT22;41626;53.098;6.168;2023-05-07T05:14:15;11.50;99.90
55721;DHT22;41626;53.098;6.168;2023-05-07T05:16:40;11.70;99.90
55721;DHT22;41626;53.098;6.168;2023-05-07T05:19:06;11.60;99.90
55721;DHT22;41626;53.098;6.168;2023-05-07T05:21:32;11.60;99.90
55721;DHT22;41626;53.098;6.168;2023-05-07T05:23:58;11.60;99.90
55721;DHT22;41626;53.098;6.168;2023-05-07T05:26:23;11.60;99.90
55721;DHT22;41626;53.098;6.168;2023-05-07T05:28:49;11.70;99.90
55721;DHT22;41626;53.098;6.168;2023-05-07T05:31:16;11.80;99.90
55721;DHT22;41626;53.098;6.168;2023-05-07T05:33:42;11.60;99.90
55721;DHT22;41626;53.098;6.168;2023-05-07T05:36:09;11.80;99.90
55721;DHT22;41626;53.098;6.168;2023-05-07T05:38:35;11.80;99.90
55721;DHT22;41626;53.098;6.168;2023-05-07T05:41:00;11.80;99.90
55721;DHT22;41626;53.098;6.168;2023-05-07T05:43:26;11.80;99.90
55721;DHT22;41626;53.098;6.168;2023-05-07T05:45:52;11.80;99.90
55721;DHT22;41626;53.098;6.168;2023-05-07T05:48:17;11.90;99.90
55721;DHT22;41626;53.098;6.168;2023-05-07T05:50:43;11.90;99.90
55721;DHT22;41626;53.098;6.168;2023-05-07T05:53:09;11.80;99.90
55721;DHT22;41626;53.098;6.168;2023-05-07T05:55:34;11.70;99.90
55721;DHT22;41626;53.098;6.168;2023-05-07T05:58:00;11.80;99.90
55721;DHT22;41626;53.098;6.168;2023-05-07T06:00:27;11.80;99.90
55721;DHT22;41626;53.098;6.168;2023-05-07T06:02:53;12.00;99.90
55721;DHT22;41626;53.098;6.168;2023-05-07T06:05:18;11.70;99.90
55721;DHT22;41626;53.098;6.168;2023-05-07T06:07:44;12.00;99.90
55721;DHT22;41626;53.098;6.168;2023-05-07T06:10:10;11.90;99.90
55721;DHT22;41626;53.098;6.168;2023-05-07T06:12:35;12.10;99.90
55721;DHT22;41626;53.098;6.168;2023-05-07T06:15:01;12.00;99.90
55721;DHT22;41626;53.098;6.168;2023-05-07T06:17:27;12.10;99.90
55721;DHT22;41626;53.098;6.168;2023-05-07T06:19:52;12.00;99.90
55721;DHT22;41626;53.098;6.168;2023-05-07T06:22:18;12.00;99.90
55721;DHT22;41626;53.098;6.168;2023-05-07T06:24:44;12.10;99.90
55721;DHT22;41626;53.098;6.168;2023-05-07T06:27:10;12.00;99.90
55721;DHT22;41626;53.098;6.168;2023-05-07T06:29:35;12.30;99.90
55721;DHT22;41626;53.098;6.168;2023-05-07T06:32:12;12.10;99.90
55721;DHT22;41626;53.098;6.168;2023-05-07T06:34:39;12.30;99.90
55721;DHT22;41626;53.098;6.168;2023-05-07T06:37:05;12.30;99.90
55721;DHT22;41626;53.098;6.168;2023-05-07T06:39:31;12.50;99.90
55721;DHT22;41626;53.098;6.168;2023-05-07T06:41:56;12.40;99.90
55721;DHT22;41626;53.098;6.168;2023-05-07T06:44:22;12.20;99.90
55721;DHT22;41626;53.098;6.168;2023-05-07T06:46:48;12.50;99.90
55721;DHT22;41626;53.098;6.168;2023-05-07T06:49:13;12.40;99.90
55721;DHT22;41626;53.098;6.168;2023-05-07T06:51:39;12.40;99.90
55721;DHT22;41626;53.098;6.168;2023-05-07T06:54:08;12.60;99.90
55721;DHT22;41626;53.098;6.168;2023-05-07T06:56:34;12.60;99.90
55721;DHT22;41626;53.098;6.168;2023-05-07T06:59:03;12.80;99.90
55721;DHT22;41626;53.098;6.168;2023-05-07T07:01:29;12.60;99.90
55721;DHT22;41626;53.098;6.168;2023-05-07T07:03:54;12.50;99.90
55721;DHT22;41626;53.098;6.168;2023-05-07T07:06:20;12.70;99.90
55721;DHT22;41626;53.098;6.168;2023-05-07T07:08:46;12.70;99.90
55721;DHT22;41626;53.098;6.168;2023-05-07T07:11:12;12.90;99.90
55721;DHT22;41626;53.098;6.168;2023-05-07T07:13:37;12.60;99.90
55721;DHT22;41626;53.098;6.168;2023-05-07T07:16:03;12.80;99.90
55721;DHT22;41626;53.098;6.168;2023-05-07T07:18:29;12.80;99.90
55721;DHT22;41626;53.098;6.168;2023-05-07T07:20:55;13.10;99.90
55721;DHT22;41626;53.098;6.168;2023-05-07T07:23:21;13.10;99.90
55721;DHT22;41626;53.098;6.168;2023-05-07T07:25:46;13.10;99.90
55721;DHT22;41626;53.098;6.168;2023-05-07T07:28:12;13.10;99.90
55721;DHT22;41626;53.098;6.168;2023-05-07T07:30:38;13.00;99.90
55721;DHT22;41626;53.098;6.168;2023-05-07T07:33:05;13.00;99.90
55721;DHT22;41626;53.098;6.168;2023-05-07T07:35:31;13.00;99.90
55721;DHT22;41626;53.098;6.168;2023-05-07T07:37:57;13.10;99.90
55721;DHT22;41626;53.098;6.168;2023-05-07T07:40:23;13.00;99.90
55721;DHT22;41626;53.098;6.168;2023-05-07T07:42:49;13.00;99.90
55721;DHT22;41626;53.098;6.168;2023-05-07T07:45:15;13.00;99.90
55721;DHT22;41626;53.098;6.168;2023-05-07T07:47:40;13.20;99.90
55721;DHT22;41626;53.098;6.168;2023-05-07T07:50:07;13.30;99.90
55721;DHT22;41626;53.098;6.168;2023-05-07T07:52:33;13.40;99.90
55721;DHT22;41626;53.098;6.168;2023-05-07T07:54:59;13.30;99.90
55721;DHT22;41626;53.098;6.168;2023-05-07T07:57:24;13.20;99.90
55721;DHT22;41626;53.098;6.168;2023-05-07T07:59:50;13.30;99.90
55721;DHT22;41626;53.098;6.168;2023-05-07T08:02:16;13.50;99.90
55721;DHT22;41626;53.098;6.168;2023-05-07T08:04:42;13.60;99.90
55721;DHT22;41626;53.098;6.168;2023-05-07T08:07:11;13.60;99.90
55721;DHT22;41626;53.098;6.168;2023-05-07T08:09:38;13.80;99.90
55721;DHT22;41626;53.098;6.168;2023-05-07T08:12:07;13.80;99.90
55721;DHT22;41626;53.098;6.168;2023-05-07T08:14:33;13.60;99.90
55721;DHT22;41626;53.098;6.168;2023-05-07T08:16:59;13.70;99.90
55721;DHT22;41626;53.098;6.168;2023-05-07T08:19:26;14.00;99.90
55721;DHT22;41626;53.098;6.168;2023-05-07T08:21:51;14.10;99.90
55721;DHT22;41626;53.098;6.168;2023-05-07T08:24:17;13.80;99.90
55721;DHT22;41626;53.098;6.168;2023-05-07T08:26:44;14.00;99.90
55721;DHT22;41626;53.098;6.168;2023-05-07T08:29:10;13.90;99.90
55721;DHT22;41626;53.098;6.168;2023-05-07T08:31:36;14.10;99.90
55721;DHT22;41626;53.098;6.168;2023-05-07T08:34:03;14.20;99.90
55721;DHT22;41626;53.098;6.168;2023-05-07T08:36:28;14.20;99.90
55721;DHT22;41626;53.098;6.168;2023-05-07T08:38:54;14.30;99.90
55721;DHT22;41626;53.098;6.168;2023-05-07T08:41:20;14.40;99.90
55721;DHT22;41626;53.098;6.168;2023-05-07T08:43:50;14.10;99.90
55721;DHT22;41626;53.098;6.168;2023-05-07T08:46:25;14.10;99.90
55721;DHT22;41626;53.098;6.168;2023-05-07T08:48:56;14.20;99.90
55721;DHT22;41626;53.098;6.168;2023-05-07T08:51:21;14.50;99.90
55721;DHT22;41626;53.098;6.168;2023-05-07T08:53:49;14.40;99.90
55721;DHT22;41626;53.098;6.168;2023-05-07T08:56:15;14.30;99.90
55721;DHT22;41626;53.098;6.168;2023-05-07T08:58:43;14.40;99.90
55721;DHT22;41626;53.098;6.168;2023-05-07T09:01:12;14.50;99.90
55721;DHT22;41626;53.098;6.168;2023-05-07T09:03:38;14.70;99.90
55721;DHT22;41626;53.098;6.168;2023-05-07T09:06:04;15.00;99.90
55721;DHT22;41626;53.098;6.168;2023-05-07T09:08:32;14.90;99.90
55721;DHT22;41626;53.098;6.168;2023-05-07T09:10:58;15.10;99.90
55721;DHT22;41626;53.098;6.168;2023-05-07T09:13:24;14.90;99.90
55721;DHT22;41626;53.098;6.168;2023-05-07T09:15:50;15.10;99.90
55721;DHT22;41626;53.098;6.168;2023-05-07T09:18:16;14.90;99.90
55721;DHT22;41626;53.098;6.168;2023-05-07T09:20:41;15.20;99.90
55721;DHT22;41626;53.098;6.168;2023-05-07T09:23:08;15.20;99.90
55721;DHT22;41626;53.098;6.168;2023-05-07T09:25:35;15.20;99.90
55721;DHT22;41626;53.098;6.168;2023-05-07T09:28:02;15.30;99.90
55721;DHT22;41626;53.098;6.168;2023-05-07T09:30:29;15.50;99.90
55721;DHT22;41626;53.098;6.168;2023-05-07T09:32:56;15.90;99.90
55721;DHT22;41626;53.098;6.168;2023-05-07T09:35:22;15.90;99.90
55721;DHT22;41626;53.098;6.168;2023-05-07T09:37:55;15.50;99.90
55721;DHT22;41626;53.098;6.168;2023-05-07T09:40:26;15.20;99.90
55721;DHT22;41626;53.098;6.168;2023-05-07T09:42:53;15.50;99.90
55721;DHT22;41626;53.098;6.168;2023-05-07T09:45:28;15.80;99.90
55721;DHT22;41626;53.098;6.168;2023-05-07T09:47:56;16.00;99.90
55721;DHT22;41626;53.098;6.168;2023-05-07T09:50:30;15.60;99.90
55721;DHT22;41626;53.098;6.168;2023-05-07T09:52:58;15.40;99.90
55721;DHT22;41626;53.098;6.168;2023-05-07T09:55:24;15.20;99.90
55721;DHT22;41626;53.098;6.168;2023-05-07T09:57:51;15.20;99.90
55721;DHT22;41626;53.098;6.168;2023-05-07T10:00:21;15.00;99.90
55721;DHT22;41626;53.098;6.168;2023-05-07T10:02:51;15.20;99.90
55721;DHT22;41626;53.098;6.168;2023-05-07T10:05:18;15.20;99.90
55721;DHT22;41626;53.098;6.168;2023-05-07T10:07:46;15.40;99.90
55721;DHT22;41626;53.098;6.168;2023-05-07T10:10:12;15.50;99.90
55721;DHT22;41626;53.098;6.168;2023-05-07T10:12:38;15.40;99.90
55721;DHT22;41626;53.098;6.168;2023-05-07T10:15:09;15.40;99.90
55721;DHT22;41626;53.098;6.168;2023-05-07T10:17:39;15.70;99.90
55721;DHT22;41626;53.098;6.168;2023-05-07T10:20:06;15.60;99.90
55721;DHT22;41626;53.098;6.168;2023-05-07T10:22:38;15.90;99.90
55721;DHT22;41626;53.098;6.168;2023-05-07T10:25:08;15.80;99.90
55721;DHT22;41626;53.098;6.168;2023-05-07T10:27:35;16.20;99.90
55721;DHT22;41626;53.098;6.168;2023-05-07T10:33:02;16.10;99.90
55721;DHT22;41626;53.098;6.168;2023-05-07T10:35:37;16.20;99.90
55721;DHT22;41626;53.098;6.168;2023-05-07T10:38:04;16.30;99.90
55721;DHT22;41626;53.098;6.168;2023-05-07T10:40:31;16.60;99.90
55721;DHT22;41626;53.098;6.168;2023-05-07T10:43:01;16.90;99.90
55721;DHT22;41626;53.098;6.168;2023-05-07T10:45:28;16.90;99.90
55721;DHT22;41626;53.098;6.168;2023-05-07T10:48:29;16.50;99.90
55721;DHT22;41626;53.098;6.168;2023-05-07T10:51:21;16.60;99.90
55721;DHT22;41626;53.098;6.168;2023-05-07T10:53:47;16.80;99.90
55721;DHT22;41626;53.098;6.168;2023-05-07T10:58:44;16.60;99.90
55721;DHT22;41626;53.098;6.168;2023-05-07T11:01:10;16.90;99.90
55721;DHT22;41626;53.098;6.168;2023-05-07T11:04:13;17.20;99.90
55721;DHT22;41626;53.098;6.168;2023-05-07T11:06:40;16.80;99.90
55721;DHT22;41626;53.098;6.168;2023-05-07T11:09:06;16.90;99.90
55721;DHT22;41626;53.098;6.168;2023-05-07T11:11:49;17.20;99.90
55721;DHT22;41626;53.098;6.168;2023-05-07T11:17:08;17.00;99.90
55721;DHT22;41626;53.098;6.168;2023-05-07T11:19:55;17.10;99.90
55721;DHT22;41626;53.098;6.168;2023-05-07T11:22:50;17.30;99.90
55721;DHT22;41626;53.098;6.168;2023-05-07T11:25:19;17.60;99.90
55721;DHT22;41626;53.098;6.168;2023-05-07T11:27:44;17.60;99.90
55721;DHT22;41626;53.098;6.168;2023-05-07T11:30:17;17.60;99.90
55721;DHT22;41626;53.098;6.168;2023-05-07T11:32:47;17.40;99.90
55721;DHT22;41626;53.098;6.168;2023-05-07T11:35:15;17.70;99.90
55721;DHT22;41626;53.098;6.168;2023-05-07T11:37:41;17.50;99.90
55721;DHT22;41626;53.098;6.168;2023-05-07T11:40:08;17.60;99.90
55721;DHT22;41626;53.098;6.168;2023-05-07T11:42:37;17.60;99.90
55721;DHT22;41626;53.098;6.168;2023-05-07T11:45:04;17.80;99.90
55721;DHT22;41626;53.098;6.168;2023-05-07T11:47:31;18.00;99.90
55721;DHT22;41626;53.098;6.168;2023-05-07T11:49:57;17.90;99.90
55721;DHT22;41626;53.098;6.168;2023-05-07T11:52:27;17.90;99.90
55721;DHT22;41626;53.098;6.168;2023-05-07T11:54:56;17.70;99.90
55721;DHT22;41626;53.098;6.168;2023-05-07T11:57:26;17.80;99.90
55721;DHT22;41626;53.098;6.168;2023-05-07T11:59:53;17.50;99.90
55721;DHT22;41626;53.098;6.168;2023-05-07T12:02:19;18.00;99.90
55721;DHT22;41626;53.098;6.168;2023-05-07T12:04:45;18.10;99.90
55721;DHT22;41626;53.098;6.168;2023-05-07T12:07:14;18.00;99.90
55721;DHT22;41626;53.098;6.168;2023-05-07T12:09:41;18.30;99.90
55721;DHT22;41626;53.098;6.168;2023-05-07T12:12:07;18.60;99.90
55721;DHT22;41626;53.098;6.168;2023-05-07T12:14:40;18.80;99.90
55721;DHT22;41626;53.098;6.168;2023-05-07T12:17:10;19.00;99.90
55721;DHT22;41626;53.098;6.168;2023-05-07T12:19:37;19.10;99.90
55721;DHT22;41626;53.098;6.168;2023-05-07T12:22:04;19.10;99.90
55721;DHT22;41626;53.098;6.168;2023-05-07T12:24:46;19.30;99.90
55721;DHT22;41626;53.098;6.168;2023-05-07T12:27:13;19.00;99.90
55721;DHT22;41626;53.098;6.168;2023-05-07T12:29:38;18.70;99.90
55721;DHT22;41626;53.098;6.168;2023-05-07T12:32:06;18.90;99.90
55721;DHT22;41626;53.098;6.168;2023-05-07T12:34:32;19.30;99.90
55721;DHT22;41626;53.098;6.168;2023-05-07T12:37:02;19.10;99.90
55721;DHT22;41626;53.098;6.168;2023-05-07T12:39:28;19.00;99.90
55721;DHT22;41626;53.098;6.168;2023-05-07T12:41:55;18.80;99.90
55721;DHT22;41626;53.098;6.168;2023-05-07T12:44:32;18.60;99.90
55721;DHT22;41626;53.098;6.168;2023-05-07T12:46:58;18.60;99.90
55721;DHT22;41626;53.098;6.168;2023-05-07T12:49:26;19.30;99.90
55721;DHT22;41626;53.098;6.168;2023-05-07T12:51:53;19.20;99.90
55721;DHT22;41626;53.098;6.168;2023-05-07T12:54:33;19.50;99.90
55721;DHT22;41626;53.098;6.168;2023-05-07T12:57:03;19.60;99.90
55721;DHT22;41626;53.098;6.168;2023-05-07T13:01:59;19.60;99.90
55721;DHT22;41626;53.098;6.168;2023-05-07T13:04:25;19.00;99.90
55721;DHT22;41626;53.098;6.168;2023-05-07T13:06:51;19.00;99.90
55721;DHT22;41626;53.098;6.168;2023-05-07T13:09:17;19.10;99.90
55721;DHT22;41626;53.098;6.168;2023-05-07T13:11:42;19.30;99.90
55721;DHT22;41626;53.098;6.168;2023-05-07T13:14:08;19.10;99.90
55721;DHT22;41626;53.098;6.168;2023-05-07T13:16:33;19.00;99.90
55721;DHT22;41626;53.098;6.168;2023-05-07T13:18:59;18.90;99.90
55721;DHT22;41626;53.098;6.168;2023-05-07T13:21:25;18.90;99.90
55721;DHT22;41626;53.098;6.168;2023-05-07T13:23:52;18.90;99.90
55721;DHT22;41626;53.098;6.168;2023-05-07T13:26:18;18.70;99.90
55721;DHT22;41626;53.098;6.168;2023-05-07T13:28:44;19.00;99.90
55721;DHT22;41626;53.098;6.168;2023-05-07T13:31:09;19.10;99.90
55721;DHT22;41626;53.098;6.168;2023-05-07T13:33:35;19.20;99.90
55721;DHT22;41626;53.098;6.168;2023-05-07T13:36:01;19.30;99.90
55721;DHT22;41626;53.098;6.168;2023-05-07T13:38:29;19.00;99.90
55721;DHT22;41626;53.098;6.168;2023-05-07T13:40:55;19.10;99.90
55721;DHT22;41626;53.098;6.168;2023-05-07T13:43:21;19.10;99.90
55721;DHT22;41626;53.098;6.168;2023-05-07T13:45:46;19.20;99.90
55721;DHT22;41626;53.098;6.168;2023-05-07T13:48:12;19.20;99.90
55721;DHT22;41626;53.098;6.168;2023-05-07T13:50:37;19.20;99.90
55721;DHT22;41626;53.098;6.168;2023-05-07T13:53:03;19.20;99.90
55721;DHT22;41626;53.098;6.168;2023-05-07T13:55:29;19.30;99.90
55721;DHT22;41626;53.098;6.168;2023-05-07T13:57:56;19.40;99.90
55721;DHT22;41626;53.098;6.168;2023-05-07T14:00:23;19.20;99.90
55721;DHT22;41626;53.098;6.168;2023-05-07T14:02:49;19.00;99.90
55721;DHT22;41626;53.098;6.168;2023-05-07T14:05:14;19.10;99.90
55721;DHT22;41626;53.098;6.168;2023-05-07T14:07:40;19.00;99.90
55721;DHT22;41626;53.098;6.168;2023-05-07T14:10:06;19.30;99.90
55721;DHT22;41626;53.098;6.168;2023-05-07T14:12:32;19.10;99.90
55721;DHT22;41626;53.098;6.168;2023-05-07T14:14:58;19.30;99.90
55721;DHT22;41626;53.098;6.168;2023-05-07T14:17:24;18.90;99.90
55721;DHT22;41626;53.098;6.168;2023-05-07T14:19:53;19.20;99.90
55721;DHT22;41626;53.098;6.168;2023-05-07T14:22:22;19.30;99.90
55721;DHT22;41626;53.098;6.168;2023-05-07T14:24:49;19.20;99.90
55721;DHT22;41626;53.098;6.168;2023-05-07T14:27:15;19.50;99.90
55721;DHT22;41626;53.098;6.168;2023-05-07T14:29:40;19.60;99.90
55721;DHT22;41626;53.098;6.168;2023-05-07T14:32:06;19.90;99.90
55721;DHT22;41626;53.098;6.168;2023-05-07T14:34:32;19.70;99.90
55721;DHT22;41626;53.098;6.168;2023-05-07T14:36:58;19.80;99.90
55721;DHT22;41626;53.098;6.168;2023-05-07T14:39:24;19.80;99.90
55721;DHT22;41626;53.098;6.168;2023-05-07T14:41:50;20.00;99.90
55721;DHT22;41626;53.098;6.168;2023-05-07T14:44:16;20.10;99.90
55721;DHT22;41626;53.098;6.168;2023-05-07T14:46:42;20.10;99.90
55721;DHT22;41626;53.098;6.168;2023-05-07T14:49:07;20.10;99.90
55721;DHT22;41626;53.098;6.168;2023-05-07T14:51:41;19.70;99.90
55721;DHT22;41626;53.098;6.168;2023-05-07T14:54:07;19.40;99.90
55721;DHT22;41626;53.098;6.168;2023-05-07T14:56:34;19.40;99.90
55721;DHT22;41626;53.098;6.168;2023-05-07T14:59:02;19.20;99.90
55721;DHT22;41626;53.098;6.168;2023-05-07T15:01:28;19.40;99.90
55721;DHT22;41626;53.098;6.168;2023-05-07T15:03:54;19.50;99.90
55721;DHT22;41626;53.098;6.168;2023-05-07T15:06:20;19.50;99.90
55721;DHT22;41626;53.098;6.168;2023-05-07T15:08:46;19.40;99.90
55721;DHT22;41626;53.098;6.168;2023-05-07T15:11:11;19.90;99.90
55721;DHT22;41626;53.098;6.168;2023-05-07T15:13:37;19.90;99.90
55721;DHT22;41626;53.098;6.168;2023-05-07T15:16:03;19.50;99.90
55721;DHT22;41626;53.098;6.168;2023-05-07T15:18:28;19.70;99.90
55721;DHT22;41626;53.098;6.168;2023-05-07T15:20:55;19.60;99.90
55721;DHT22;41626;53.098;6.168;2023-05-07T15:23:22;19.40;99.90
55721;DHT22;41626;53.098;6.168;2023-05-07T15:25:47;19.30;99.90
55721;DHT22;41626;53.098;6.168;2023-05-07T15:28:13;19.40;99.90
55721;DHT22;41626;53.098;6.168;2023-05-07T15:30:38;19.60;99.90
55721;DHT22;41626;53.098;6.168;2023-05-07T15:33:04;19.40;99.90
55721;DHT22;41626;53.098;6.168;2023-05-07T15:35:30;19.60;99.90
55721;DHT22;41626;53.098;6.168;2023-05-07T15:37:56;19.90;99.90
55721;DHT22;41626;53.098;6.168;2023-05-07T15:40:22;19.70;99.90
55721;DHT22;41626;53.098;6.168;2023-05-07T15:42:48;19.90;99.90